createdAt,value
2018-05-13T00:01:38.401Z,7.83
2018-05-13T00:04:06.164Z,8.23
2018-05-13T00:06:33.773Z,6.57
2018-05-13T00:09:01.327Z,5.70
2018-05-13T00:11:28.904Z,6.20
2018-05-13T00:13:57.314Z,11.40
2018-05-13T00:16:24.979Z,5.53
2018-05-13T00:18:52.609Z,5.73
2018-05-13T00:21:21.138Z,5.53
2018-05-13T00:23:48.885Z,6.13
2018-05-13T00:26:16.469Z,7.90
2018-05-13T00:28:44.102Z,7.23
2018-05-13T00:31:11.762Z,6.73
2018-05-13T00:33:39.310Z,9.83
2018-05-13T00:36:06.980Z,7.90
2018-05-13T00:38:34.542Z,9.20
2018-05-13T00:41:02.140Z,10.53
2018-05-13T00:43:29.757Z,7.20
2018-05-13T00:45:57.334Z,7.77
2018-05-13T00:48:24.976Z,8.47
2018-05-13T00:50:52.526Z,8.20
2018-05-13T00:53:20.198Z,7.57
2018-05-13T00:55:47.830Z,7.53
2018-05-13T00:58:16.244Z,8.93
2018-05-13T01:00:43.816Z,8.80
2018-05-13T01:03:11.397Z,8.60
2018-05-13T01:05:39.016Z,8.07
2018-05-13T01:08:06.668Z,8.00
2018-05-13T01:10:34.306Z,7.90
2018-05-13T01:13:02.650Z,7.70
2018-05-13T01:15:30.214Z,7.90
2018-05-13T01:17:57.769Z,8.73
2018-05-13T01:20:25.345Z,8.73
2018-05-13T01:22:53.757Z,10.77
2018-05-13T01:25:21.353Z,9.80
2018-05-13T01:27:49.015Z,11.93
2018-05-13T01:30:16.593Z,11.23
2018-05-13T01:32:44.157Z,9.57
2018-05-13T01:35:11.729Z,9.43
2018-05-13T01:37:40.183Z,9.17
2018-05-13T01:40:07.853Z,9.17
2018-05-13T01:42:36.141Z,8.83
2018-05-13T01:45:04.545Z,9.90
2018-05-13T01:47:32.063Z,10.33
2018-05-13T01:50:00.482Z,8.27
2018-05-13T01:52:28.039Z,8.40
2018-05-13T01:54:55.546Z,10.30
2018-05-13T01:57:23.157Z,8.87
2018-05-13T01:59:50.656Z,8.83
2018-05-13T02:02:18.222Z,8.60
2018-05-13T02:04:45.840Z,9.23
2018-05-13T02:07:13.473Z,9.70
2018-05-13T02:09:40.993Z,11.70
2018-05-13T02:12:08.538Z,9.20
2018-05-13T02:14:36.164Z,12.63
2018-05-13T02:17:03.700Z,9.00
2018-05-13T02:19:31.224Z,8.30
2018-05-13T02:21:58.810Z,8.13
2018-05-13T02:24:27.156Z,7.93
2018-05-13T02:26:54.674Z,8.23
2018-05-13T02:29:22.331Z,7.73
2018-05-13T02:31:49.846Z,7.60
2018-05-13T02:34:18.177Z,7.00
2018-05-13T02:36:45.685Z,7.60
2018-05-13T02:39:13.997Z,8.70
2018-05-13T02:41:41.516Z,7.83
2018-05-13T02:44:10.038Z,7.70
2018-05-13T02:46:37.592Z,7.10
2018-05-13T02:49:05.152Z,8.57
2018-05-13T02:51:32.686Z,7.20
2018-05-13T02:54:01.188Z,7.47
2018-05-13T02:56:28.812Z,7.67
2018-05-13T02:58:57.105Z,6.90
2018-05-13T03:01:24.640Z,6.87
2018-05-13T03:03:52.924Z,7.60
2018-05-13T03:06:21.231Z,7.10
2018-05-13T03:08:48.885Z,7.50
2018-05-13T03:11:16.452Z,6.80
2018-05-13T03:13:44.057Z,6.60
2018-05-13T03:16:12.432Z,6.73
2018-05-13T03:18:41.613Z,6.97
2018-05-13T03:21:09.173Z,6.13
2018-05-13T03:23:36.706Z,6.30
2018-05-13T03:26:04.256Z,6.87
2018-05-13T03:28:31.773Z,7.53
2018-05-13T03:31:00.100Z,6.90
2018-05-13T03:33:27.608Z,7.70
2018-05-13T03:35:55.888Z,6.20
2018-05-13T03:38:24.304Z,7.00
2018-05-13T03:40:51.866Z,6.23
2018-05-13T03:43:19.397Z,6.43
2018-05-13T03:45:47.076Z,5.70
2018-05-13T03:48:14.630Z,6.53
2018-05-13T03:50:42.301Z,6.57
2018-05-13T03:53:09.833Z,5.57
2018-05-13T03:55:37.410Z,6.30
2018-05-13T03:58:04.970Z,5.53
2018-05-13T04:00:32.505Z,5.60
2018-05-13T04:03:00.116Z,5.70
2018-05-13T04:05:27.747Z,5.90
2018-05-13T04:11:19.925Z,5.53
2018-05-13T04:13:59.123Z,4.93
2018-05-13T04:16:26.793Z,5.30
2018-05-13T04:18:54.332Z,5.40
2018-05-13T04:21:21.940Z,8.40
2018-05-13T04:23:49.469Z,5.50
2018-05-13T04:26:16.993Z,7.50
2018-05-13T04:28:45.451Z,4.93
2018-05-13T04:31:13.140Z,4.60
2018-05-13T04:33:40.813Z,5.00
2018-05-13T04:36:08.332Z,9.00
2018-05-13T04:38:35.944Z,4.73
2018-05-13T04:41:03.498Z,4.70
2018-05-13T04:43:31.033Z,4.87
2018-05-13T04:45:58.621Z,4.83
2018-05-13T04:48:26.192Z,4.60
2018-05-13T04:50:53.708Z,4.60
2018-05-13T04:53:21.272Z,4.90
2018-05-13T04:55:48.804Z,5.67
2018-05-13T04:58:17.080Z,7.43
2018-05-13T05:00:45.389Z,5.60
2018-05-13T05:03:12.953Z,6.63
2018-05-13T05:05:40.477Z,6.00
2018-05-13T05:08:08.889Z,6.00
2018-05-13T05:10:36.446Z,6.00
2018-05-13T05:13:03.949Z,5.77
2018-05-13T05:15:31.664Z,5.37
2018-05-13T05:17:59.182Z,7.60
2018-05-13T05:20:27.617Z,6.87
2018-05-13T05:22:55.262Z,10.23
2018-05-13T05:25:22.812Z,5.87
2018-05-13T05:27:50.534Z,5.73
2018-05-13T05:30:18.017Z,5.93
2018-05-13T05:32:45.561Z,5.57
2018-05-13T05:35:13.844Z,7.33
2018-05-13T05:37:41.391Z,6.17
2018-05-13T05:40:09.707Z,23.70
2018-05-13T05:42:37.253Z,5.03
2018-05-13T05:45:04.766Z,5.93
2018-05-13T05:47:32.324Z,6.10
2018-05-13T05:49:59.837Z,7.50
2018-05-13T05:52:27.391Z,5.70
2018-05-13T05:54:54.921Z,5.90
2018-05-13T05:57:22.508Z,6.07
2018-05-13T05:59:50.170Z,6.17
2018-05-13T06:02:17.805Z,5.83
2018-05-13T06:04:45.353Z,6.23
2018-05-13T06:07:13.642Z,8.50
2018-05-13T06:09:41.221Z,6.00
2018-05-13T06:12:08.947Z,8.50
2018-05-13T06:14:37.257Z,6.73
2018-05-13T06:17:04.821Z,8.10
2018-05-13T06:19:32.461Z,6.70
2018-05-13T06:22:00.012Z,5.73
2018-05-13T06:24:27.556Z,5.70
2018-05-13T06:26:55.836Z,5.60
2018-05-13T06:29:24.140Z,5.73
2018-05-13T06:31:51.701Z,6.67
2018-05-13T06:34:19.269Z,5.97
2018-05-13T06:36:46.797Z,6.77
2018-05-13T06:39:14.492Z,5.83
2018-05-13T06:41:42.040Z,5.40
2018-05-13T06:44:09.592Z,5.60
2018-05-13T06:46:37.216Z,5.73
2018-05-13T06:49:05.653Z,7.50
2018-05-13T06:51:33.349Z,7.50
2018-05-13T06:54:01.552Z,5.90
2018-05-13T06:56:29.100Z,6.63
2018-05-13T06:58:56.617Z,6.43
2018-05-13T07:01:24.167Z,9.00
2018-05-13T07:03:51.832Z,7.20
2018-05-13T07:06:20.140Z,6.90
2018-05-13T07:08:48.424Z,9.07
2018-05-13T07:11:15.996Z,7.63
2018-05-13T07:13:43.522Z,9.00
2018-05-13T07:16:11.921Z,8.23
2018-05-13T07:18:39.456Z,9.80
2018-05-13T07:21:07.917Z,7.50
2018-05-13T07:23:35.705Z,7.70
2018-05-13T07:26:03.993Z,9.07
2018-05-13T07:28:32.310Z,6.27
2018-05-13T07:30:59.836Z,7.70
2018-05-13T07:33:27.397Z,8.23
2018-05-13T07:35:54.929Z,13.70
2018-05-13T07:38:23.346Z,7.27
2018-05-13T07:40:50.910Z,9.00
2018-05-13T07:43:18.464Z,7.13
2018-05-13T07:45:46.126Z,10.70
2018-05-13T07:48:13.653Z,9.23
2018-05-13T07:50:41.985Z,9.67
2018-05-13T07:53:09.625Z,12.30
2018-05-13T07:55:37.205Z,7.43
2018-05-13T07:58:04.753Z,12.30
2018-05-13T08:00:32.379Z,7.60
2018-05-13T08:03:00.023Z,9.57
2018-05-13T08:05:28.535Z,8.27
2018-05-13T08:07:56.229Z,8.80
2018-05-13T08:10:23.855Z,9.20
2018-05-13T08:12:51.403Z,12.50
2018-05-13T08:15:18.940Z,8.70
2018-05-13T08:17:47.230Z,12.23
2018-05-13T08:20:14.997Z,7.40
2018-05-13T08:22:43.369Z,8.17
2018-05-13T08:25:11.046Z,7.40
2018-05-13T08:27:38.540Z,9.90
2018-05-13T08:30:06.092Z,9.00
2018-05-13T08:32:33.624Z,12.83
2018-05-13T08:35:01.201Z,10.27
2018-05-13T08:37:28.735Z,11.07
2018-05-13T08:39:56.300Z,9.20
2018-05-13T08:42:23.816Z,8.10
2018-05-13T08:44:52.228Z,7.87
2018-05-13T08:47:19.774Z,7.40
2018-05-13T08:49:47.342Z,7.70
2018-05-13T08:52:14.855Z,7.10
2018-05-13T08:54:42.401Z,8.37
2018-05-13T08:57:09.929Z,7.10
2018-05-13T08:59:37.527Z,7.93
2018-05-13T09:02:05.062Z,7.50
2018-05-13T09:04:32.719Z,11.73
2018-05-13T09:07:00.274Z,7.17
2018-05-13T09:09:27.869Z,6.60
2018-05-13T09:11:56.162Z,6.53
2018-05-13T09:14:24.533Z,6.43
2018-05-13T09:16:52.101Z,6.83
2018-05-13T09:19:19.670Z,5.50
2018-05-13T09:21:47.238Z,7.30
2018-05-13T09:24:14.774Z,7.23
2018-05-13T09:26:42.303Z,6.70
2018-05-13T09:29:09.958Z,6.87
2018-05-13T09:31:37.473Z,6.70
2018-05-13T09:34:05.132Z,5.60
2018-05-13T09:36:32.638Z,6.93
2018-05-13T09:39:00.221Z,6.83
2018-05-13T09:41:28.518Z,8.37
2018-05-13T09:43:56.060Z,10.13
2018-05-13T09:46:23.617Z,8.60
2018-05-13T09:48:52.022Z,8.17
2018-05-13T09:51:19.606Z,6.87
2018-05-13T09:53:47.084Z,6.80
2018-05-13T09:56:15.425Z,7.77
2018-05-13T09:58:42.949Z,8.17
2018-05-13T10:01:10.525Z,7.60
2018-05-13T10:03:38.208Z,9.70
2018-05-13T10:06:05.754Z,9.80
2018-05-13T10:08:33.268Z,11.50
2018-05-13T10:11:00.838Z,10.03
2018-05-13T10:13:28.416Z,10.17
2018-05-13T10:15:56.087Z,9.03
2018-05-13T10:18:23.636Z,10.67
2018-05-13T10:20:51.220Z,10.40
2018-05-13T10:23:18.797Z,12.07
2018-05-13T10:25:46.356Z,9.73
2018-05-13T10:28:13.908Z,12.33
2018-05-13T10:30:41.577Z,10.90
2018-05-13T10:33:09.116Z,11.00
2018-05-13T10:35:38.166Z,11.20
2018-05-13T10:38:05.821Z,11.37
2018-05-13T10:40:33.292Z,13.40
2018-05-13T10:43:00.954Z,11.53
2018-05-13T10:45:28.510Z,15.40
2018-05-13T10:47:56.069Z,13.67
2018-05-13T10:50:23.630Z,15.90
2018-05-13T10:52:51.321Z,12.17
2018-05-13T10:55:18.850Z,12.00
2018-05-13T10:57:46.458Z,12.40
2018-05-13T11:00:14.066Z,12.97
2018-05-13T11:02:41.658Z,18.73
2018-05-13T11:05:09.246Z,12.43
2018-05-13T11:07:36.772Z,16.30
2018-05-13T11:10:04.314Z,13.73
2018-05-13T11:12:32.113Z,12.70
2018-05-13T11:14:59.687Z,12.20
2018-05-13T11:17:28.099Z,12.60
2018-05-13T11:19:55.637Z,13.17
2018-05-13T11:22:23.188Z,12.00
2018-05-13T11:24:51.497Z,13.10
2018-05-13T11:27:19.074Z,12.83
2018-05-13T11:29:46.601Z,13.83
2018-05-13T11:32:14.165Z,13.73
2018-05-13T11:34:41.824Z,12.93
2018-05-13T11:37:09.484Z,16.67
2018-05-13T11:39:37.042Z,14.40
2018-05-13T11:42:04.579Z,13.90
2018-05-13T11:44:32.133Z,17.03
2018-05-13T11:46:59.830Z,20.53
2018-05-13T11:49:27.387Z,15.50
2018-05-13T11:51:54.952Z,18.53
2018-05-13T11:54:22.509Z,19.97
2018-05-13T11:56:50.066Z,20.10
2018-05-13T11:59:17.597Z,20.33
2018-05-13T12:01:45.161Z,22.57
2018-05-13T12:04:12.753Z,18.73
2018-05-13T12:06:40.285Z,19.07
2018-05-13T12:09:07.961Z,21.87
2018-05-13T12:11:35.603Z,18.40
2018-05-13T12:14:03.165Z,15.80
2018-05-13T12:16:30.752Z,19.00
2018-05-13T12:18:58.384Z,18.53
2018-05-13T12:21:25.933Z,16.57
2018-05-13T12:23:53.468Z,15.63
2018-05-13T12:26:21.804Z,23.33
2018-05-13T12:28:49.405Z,18.30
2018-05-13T12:31:17.065Z,16.33
2018-05-13T12:33:44.610Z,16.20
2018-05-13T12:36:12.204Z,14.90
2018-05-13T12:38:39.736Z,12.60
2018-05-13T12:41:08.042Z,15.83
2018-05-13T12:43:35.703Z,13.07
2018-05-13T12:46:03.292Z,14.93
2018-05-13T12:48:31.127Z,16.00
2018-05-13T12:50:58.668Z,13.27
2018-05-13T12:53:26.410Z,15.20
2018-05-13T12:55:54.822Z,13.03
2018-05-13T12:58:22.460Z,14.57
2018-05-13T13:00:50.042Z,17.33
2018-05-13T13:03:17.593Z,14.37
2018-05-13T13:05:45.114Z,15.80
2018-05-13T13:08:13.452Z,16.33
2018-05-13T13:10:41.096Z,16.60
2018-05-13T13:13:08.663Z,15.17
2018-05-13T13:15:36.209Z,13.97
2018-05-13T13:18:03.937Z,17.13
2018-05-13T13:20:32.277Z,14.67
2018-05-13T13:22:59.795Z,13.90
2018-05-13T13:25:27.345Z,19.20
2018-05-13T13:27:55.023Z,19.50
2018-05-13T13:30:22.689Z,20.10
2018-05-13T13:32:50.256Z,17.53
2018-05-13T13:35:18.457Z,18.90
2018-05-13T13:37:45.978Z,19.33
2018-05-13T13:40:13.533Z,18.63
2018-05-13T13:42:41.121Z,20.70
2018-05-13T13:45:08.751Z,22.03
2018-05-13T13:47:36.411Z,19.83
2018-05-13T13:50:03.992Z,20.10
2018-05-13T13:52:31.610Z,18.87
2018-05-13T13:54:59.188Z,19.10
2018-05-13T13:57:26.737Z,16.07
2018-05-13T13:59:54.509Z,17.33
2018-05-13T14:02:22.168Z,18.30
2018-05-13T14:04:49.701Z,19.27
2018-05-13T14:07:18.057Z,17.70
2018-05-13T14:09:45.694Z,16.63
2018-05-13T14:12:13.323Z,15.27
2018-05-13T14:14:40.879Z,15.37
2018-05-13T14:17:08.437Z,17.20
2018-05-13T14:19:36.142Z,20.20
2018-05-13T14:22:03.809Z,16.50
2018-05-13T14:24:31.333Z,14.50
2018-05-13T14:26:58.947Z,18.40
2018-05-13T14:29:26.456Z,16.90
2018-05-13T14:31:54.101Z,14.40
2018-05-13T14:34:21.693Z,18.70
2018-05-13T14:36:49.389Z,15.00
2018-05-13T14:39:17.701Z,12.93
2018-05-13T14:41:45.244Z,14.13
2018-05-13T14:44:13.585Z,11.93
2018-05-13T14:46:42.022Z,15.00
2018-05-13T14:49:09.581Z,12.67
2018-05-13T14:51:37.113Z,15.20
2018-05-13T14:54:04.693Z,13.30
2018-05-13T14:56:32.250Z,12.40
2018-05-13T14:58:59.833Z,12.33
2018-05-13T15:01:27.537Z,12.70
2018-05-13T15:03:55.129Z,11.30
2018-05-13T15:06:22.698Z,14.00
2018-05-13T15:08:50.211Z,13.50
2018-05-13T15:11:17.794Z,11.80
2018-05-13T15:13:45.331Z,10.03
2018-05-13T15:16:12.904Z,13.70
2018-05-13T15:18:40.429Z,14.30
2018-05-13T15:21:09.047Z,13.13
2018-05-13T15:23:36.705Z,13.87
2018-05-13T15:26:04.281Z,14.80
2018-05-13T15:28:31.833Z,11.23
2018-05-13T15:30:59.385Z,13.03
2018-05-13T15:33:27.040Z,11.97
2018-05-13T15:35:54.561Z,10.93
2018-05-13T15:38:22.262Z,10.17
2018-05-13T15:40:49.774Z,15.50
2018-05-13T15:43:18.380Z,12.20
2018-05-13T15:45:45.958Z,12.50
2018-05-13T15:48:13.542Z,17.33
2018-05-13T15:50:41.072Z,12.73
2018-05-13T15:53:08.697Z,11.40
2018-05-13T15:55:36.304Z,13.40
2018-05-13T15:58:03.873Z,13.90
2018-05-13T16:00:31.420Z,12.27
2018-05-13T16:02:59.077Z,12.60
2018-05-13T16:05:26.716Z,13.23
2018-05-13T16:07:54.287Z,12.93
2018-05-13T16:10:21.923Z,12.73
2018-05-13T16:12:50.349Z,12.30
2018-05-13T16:15:17.984Z,17.17
2018-05-13T16:17:45.553Z,13.80
2018-05-13T16:20:13.157Z,11.00
2018-05-13T16:22:40.682Z,11.07
2018-05-13T16:25:08.249Z,12.10
2018-05-13T16:27:35.923Z,14.40
2018-05-13T16:30:03.532Z,16.80
2018-05-13T16:32:31.062Z,12.80
2018-05-13T16:34:59.550Z,11.83
2018-05-13T16:37:27.869Z,15.80
2018-05-13T16:39:55.468Z,14.10
2018-05-13T16:42:23.008Z,10.13
2018-05-13T16:44:50.702Z,11.73
2018-05-13T16:47:18.398Z,10.47
2018-05-13T16:49:46.146Z,12.27
2018-05-13T16:52:13.685Z,11.10
2018-05-13T16:54:41.209Z,10.23
2018-05-13T16:57:08.768Z,13.63
2018-05-13T16:59:36.316Z,11.33
2018-05-13T17:02:03.944Z,9.70
2018-05-13T17:04:31.584Z,14.90
2018-05-13T17:06:59.133Z,13.80
2018-05-13T17:09:26.774Z,11.03
2018-05-13T17:11:54.384Z,14.40
2018-05-13T17:14:21.902Z,12.00
2018-05-13T17:16:50.335Z,12.07
2018-05-13T17:19:17.903Z,13.83
2018-05-13T17:21:45.511Z,11.27
2018-05-13T17:24:13.074Z,11.93
2018-05-13T17:26:40.692Z,11.30
2018-05-13T17:29:08.249Z,12.17
2018-05-13T17:31:35.966Z,12.13
2018-05-13T17:34:03.644Z,10.73
2018-05-13T17:36:31.294Z,13.63
2018-05-13T17:38:58.808Z,12.07
2018-05-13T17:41:26.382Z,12.70
2018-05-13T17:43:54.688Z,11.63
2018-05-13T17:46:22.253Z,11.57
2018-05-13T17:48:49.787Z,12.33
2018-05-13T17:51:17.416Z,13.27
2018-05-13T17:53:45.923Z,11.60
2018-05-13T17:56:13.479Z,11.40
2018-05-13T17:58:41.873Z,12.50
2018-05-13T18:01:09.475Z,11.07
2018-05-13T18:03:37.065Z,13.20
2018-05-13T18:06:05.471Z,14.37
2018-05-13T18:08:33.033Z,11.10
2018-05-13T18:11:00.593Z,14.40
2018-05-13T18:13:29.124Z,12.77
2018-05-13T18:15:56.684Z,11.63
2018-05-13T18:18:24.226Z,13.63
2018-05-13T18:20:51.982Z,11.93
2018-05-13T18:23:19.549Z,13.80
2018-05-13T18:25:47.081Z,11.07
2018-05-13T18:28:14.638Z,13.53
2018-05-13T18:30:42.169Z,12.77
2018-05-13T18:33:09.747Z,12.47
2018-05-13T18:35:37.330Z,12.30
2018-05-13T18:38:06.437Z,13.47
2018-05-13T18:40:34.814Z,14.47
2018-05-13T18:43:02.360Z,13.27
2018-05-13T18:45:29.986Z,15.30
2018-05-13T18:47:57.520Z,11.97
2018-05-13T18:50:25.206Z,17.40
2018-05-13T18:52:52.809Z,12.80
2018-05-13T18:55:20.394Z,14.70
2018-05-13T18:57:48.706Z,14.50
2018-05-13T19:00:16.264Z,13.73
2018-05-13T19:02:43.825Z,13.27
2018-05-13T19:05:11.546Z,19.50
2018-05-13T19:07:40.060Z,14.00
2018-05-13T19:10:07.754Z,13.60
2018-05-13T19:12:35.289Z,13.50
2018-05-13T19:15:02.951Z,22.40
2018-05-13T19:17:30.407Z,16.50
2018-05-13T19:19:57.968Z,13.80
2018-05-13T19:22:25.508Z,17.23
2018-05-13T19:24:53.173Z,17.77
2018-05-13T19:27:20.688Z,16.23
2018-05-13T19:29:49.068Z,17.00
2018-05-13T19:32:17.381Z,17.57
2018-05-13T19:34:44.980Z,22.43
2018-05-13T19:37:12.600Z,19.93
2018-05-13T19:39:40.114Z,21.83
2018-05-13T19:42:08.450Z,22.43
2018-05-13T19:44:36.145Z,18.50
2018-05-13T19:47:04.472Z,19.73
2018-05-13T19:49:31.997Z,19.63
2018-05-13T19:51:59.579Z,17.23
2018-05-13T19:54:27.198Z,18.77
2018-05-13T19:56:54.757Z,19.67
2018-05-13T19:59:23.087Z,15.40
2018-05-13T20:01:50.709Z,20.37
2018-05-13T20:04:19.195Z,17.30
2018-05-13T20:06:47.891Z,15.77
2018-05-13T20:09:15.467Z,17.03
2018-05-13T20:11:43.102Z,20.83
2018-05-13T20:14:10.784Z,18.23
2018-05-13T20:16:38.301Z,14.70
2018-05-13T20:19:06.688Z,16.30
2018-05-13T20:21:35.056Z,19.77
2018-05-13T20:24:02.600Z,16.80
2018-05-13T20:26:30.148Z,14.77
2018-05-13T20:28:57.728Z,14.00
2018-05-13T20:31:26.029Z,15.40
2018-05-13T20:33:53.572Z,14.40
2018-05-13T20:36:21.202Z,15.27
2018-05-13T20:38:48.845Z,13.20
2018-05-13T20:41:16.380Z,13.50
2018-05-13T20:43:43.938Z,15.30
2018-05-13T20:46:11.473Z,14.80
2018-05-13T20:48:39.154Z,15.50
2018-05-13T20:51:06.705Z,13.03
2018-05-13T20:53:34.241Z,12.33
2018-05-13T20:56:02.803Z,11.87
2018-05-13T20:58:30.277Z,13.07
2018-05-13T21:00:58.621Z,9.70
2018-05-13T21:03:26.169Z,13.57
2018-05-13T21:05:53.787Z,13.40
2018-05-13T21:11:20.393Z,17.23
2018-05-13T21:13:47.982Z,16.27
2018-05-13T21:16:16.362Z,21.60
2018-05-13T21:18:43.961Z,15.33
2018-05-13T21:21:11.948Z,17.07
2018-05-13T21:23:40.417Z,15.70
2018-05-13T21:26:08.667Z,18.80
2018-05-13T21:28:36.288Z,19.53
2018-05-13T21:31:04.254Z,20.67
2018-05-13T21:33:31.808Z,19.73
2018-05-13T21:36:00.216Z,18.80
2018-05-13T21:38:29.061Z,21.33
2018-05-13T21:40:56.605Z,22.77
2018-05-13T21:43:24.911Z,23.20
2018-05-13T21:45:52.483Z,22.03
2018-05-13T21:48:20.941Z,21.37
2018-05-13T21:50:48.558Z,21.23
2018-05-13T21:53:16.265Z,21.27
2018-05-13T21:55:43.802Z,25.63
2018-05-13T21:58:11.397Z,23.27
2018-05-13T22:03:13.319Z,24.90
2018-05-13T22:05:41.032Z,26.23
2018-05-13T22:08:08.850Z,26.83
2018-05-13T22:10:36.954Z,24.93
2018-05-13T22:13:05.290Z,23.80
2018-05-13T22:15:32.827Z,24.77
2018-05-13T22:18:00.857Z,26.47
2018-05-13T22:20:28.435Z,26.43
2018-05-13T22:22:56.885Z,22.30
2018-05-13T22:25:24.465Z,25.83
2018-05-13T22:27:51.989Z,24.93
2018-05-13T22:30:19.533Z,21.23
2018-05-13T22:32:47.370Z,22.17
2018-05-13T22:35:14.946Z,18.63
2018-05-13T22:37:42.697Z,17.27
2018-05-13T22:40:10.271Z,19.13
2018-05-13T22:42:38.705Z,16.70
2018-05-13T22:45:06.297Z,19.80
2018-05-13T22:47:33.830Z,20.37
2018-05-13T22:50:02.495Z,21.80
2018-05-13T22:52:31.573Z,15.43
2018-05-13T22:54:59.537Z,17.17
2018-05-13T22:57:27.069Z,19.70
2018-05-13T22:59:55.365Z,22.40
2018-05-13T23:02:22.930Z,22.10
2018-05-13T23:04:50.464Z,22.17
2018-05-13T23:07:18.021Z,18.33
2018-05-13T23:09:45.572Z,19.80
2018-05-13T23:12:13.273Z,19.93
2018-05-13T23:14:42.307Z,16.50
2018-05-13T23:17:09.866Z,20.80
2018-05-13T23:19:37.857Z,19.50
2018-05-13T23:22:05.409Z,16.93
2018-05-13T23:24:32.929Z,20.07
2018-05-13T23:27:01.262Z,21.20
2018-05-13T23:29:28.776Z,17.30
2018-05-13T23:31:57.159Z,17.80
2018-05-13T23:34:25.510Z,21.17
2018-05-13T23:36:53.400Z,18.10
2018-05-13T23:39:20.999Z,19.43
2018-05-13T23:41:49.392Z,19.20
2018-05-13T23:44:17.022Z,22.30
2018-05-13T23:46:44.630Z,19.97
2018-05-13T23:49:12.963Z,23.13
2018-05-13T23:51:40.480Z,24.57
2018-05-13T23:54:08.813Z,25.13
2018-05-13T23:56:36.334Z,28.50
2018-05-13T23:59:03.896Z,26.63
